Latest Weather Observations for Ulladulla

IDN60901

Issued at 6:41 pm EDT Saturday 6 February 2016 (issued every 10 minutes, with the page automatically refreshed every 10 minutes)

About weather observations | Map of Canberra area stations | Latest observations for Canberra area | Other Formats
Station Details ID: 069138 Name: ULLADULLA AWS Lat: -35.36 Lon: 150.48 Height: 35.7 m
Data from the previous 72 hours. | See also: Recent months at Ulladulla
Date/Time
EDT
Tmp

°C
App
Tmp
°C
Dew
Point
°C
Rel
Hum
%
Delta-T

°C
Wind Press
QNH
hPa
Press
MSL
hPa
Rain
since
9 am
mm
Dir
 
Spd
km/h
Gust
km/h
Spd
kts
Gust
kts
06/06:30pm 22.3 22.6 14.4 61 4.6 E 6 9 3 5 1017.8 1017.7 0.0
06/06:00pm 22.9 23.1 14.7 60 4.8 ESE 7 15 4 8 1017.6 1017.5 0.0
06/05:30pm 22.9 22.5 14.2 58 5.1 SE 9 15 5 8 1017.6 1017.5 0.0
06/05:00pm 22.8 22.8 14.1 58 5.1 SE 7 15 4 8 1017.7 1017.6 0.0
06/04:30pm 23.8 24.1 15.0 57 5.3 SSE 7 15 4 8 1017.9 1017.8 0.0
06/04:00pm 23.0 22.3 14.3 58 5.1 SE 11 15 6 8 1018.0 1017.9 0.0
06/03:30pm 23.6 23.3 14.3 56 5.5 SE 9 15 5 8 1018.2 1018.1 0.0
06/03:00pm 23.3 22.6 14.3 57 5.3 SE 11 17 6 9 1018.3 1018.2 0.0
06/02:30pm 23.6 23.0 14.6 57 5.3 SE 11 17 6 9 1018.6 1018.5 0.0
06/02:00pm 24.3 24.3 15.2 57 5.5 SE 9 15 5 8 1018.8 1018.7 0.0
06/01:30pm 23.7 23.4 14.4 56 5.5 SE 9 17 5 9 1019.1 1019.0 0.0
06/01:00pm 23.7 23.7 15.2 59 5.1 SSE 9 17 5 9 1019.3 1019.2 0.0
06/12:30pm 23.9 24.0 15.4 59 5.1 SSE 9 17 5 9 1019.5 1019.4 0.0
06/12:00pm 23.8 23.8 16.3 63 4.6 SSE 11 17 6 9 1019.7 1019.6 0.0
06/11:30am 23.6 23.1 15.9 62 4.7 SSE 13 19 7 10 1019.7 1019.6 0.0
06/11:00am 23.0 21.4 15.1 61 4.7 SSE 17 20 9 11 1019.8 1019.7 0.0
06/10:30am 23.1 23.2 16.4 66 4.1 SSE 11 19 6 10 1020.0 1019.9 0.0
06/10:00am 22.8 22.0 16.1 66 4.0 SSE 15 20 8 11 1019.8 1019.7 0.0
06/09:30am 22.3 22.2 16.1 68 3.7 SSW 11 17 6 9 1019.8 1019.7 0.0
06/09:00am 22.3 21.6 14.4 61 4.6 SSE 11 19 6 10 1019.7 1019.6 0.0
06/08:30am 22.4 21.8 14.5 61 4.7 SSE 11 17 6 9 1019.6 1019.5 0.0
06/08:00am 21.3 20.3 14.5 65 4.0 SE 13 22 7 12 1019.3 1019.2 0.0
06/07:30am 20.8 20.6 15.8 73 3.0 SE 11 22 6 12 1019.1 1019.0 0.0
06/07:00am 20.7 20.0 15.5 72 3.1 SSE 13 22 7 12 1018.9 1018.8 0.0
06/06:30am 20.7 19.3 14.6 68 3.6 SE 15 22 8 12 1018.6 1018.5 0.0
06/06:00am 20.8 20.5 14.5 67 3.7 SE 9 19 5 10 1018.5 1018.4 0.0
06/05:30am 20.8 20.4 14.0 65 3.9 SE 9 15 5 8 1018.5 1018.4 0.0
06/05:00am 20.7 19.6 14.4 67 3.7 SSE 13 20 7 11 1018.4 1018.3 0.0
06/04:30am 20.8 18.9 14.2 66 3.8 SSE 17 24 9 13 1018.5 1018.4 0.0
06/04:00am 20.7 20.1 14.6 68 3.6 SE 11 20 6 11 1018.6 1018.5 0.0
06/03:30am 20.8 19.1 12.5 59 4.7 SSE 13 19 7 10 1018.7 1018.6 0.0
06/03:00am 20.9 19.3 13.8 64 4.1 SE 15 20 8 11 1018.9 1018.8 0.0
06/02:30am 20.9 19.4 13.1 61 4.5 SSE 13 19 7 10 1019.2 1019.1 0.0
06/02:00am 20.9 19.6 12.6 59 4.7 SE 11 19 6 10 1019.2 1019.1 0.0
06/01:30am 20.7 19.9 13.9 65 3.9 SE 11 17 6 9 1019.5 1019.4 0.0
06/01:00am 20.7 20.0 14.4 67 3.7 SE 11 20 6 11 1019.8 1019.7 0.0
06/12:30am 20.7 19.3 14.4 67 3.7 SE 15 22 8 12 1020.0 1019.9 0.0
06/12:00am 20.8 19.2 15.1 70 3.4 SSE 17 24 9 13 1020.2 1020.1 0.0
 
Date/Time
EDT
Tmp

°C
App
Tmp
°C
Dew
Point
°C
Rel
Hum
%
Delta-T

°C
Wind Press
QNH
hPa
Press
MSL
hPa
Rain
since
9 am
mm
Dir
 
Spd
km/h
Gust
km/h
Spd
kts
Gust
kts
05/11:30pm 20.8 19.5 14.9 69 3.5 SSE 15 26 8 14 1020.3 1020.2 0.0
05/11:00pm 20.8 18.7 14.7 68 3.6 SSE 19 28 10 15 1020.5 1020.4 0.0
05/10:30pm 20.8 19.0 14.5 67 3.7 SSE 17 24 9 13 1020.5 1020.4 0.0
05/10:00pm 20.9 18.7 14.5 67 3.7 SSE 19 28 10 15 1020.6 1020.5 0.0
05/09:30pm 21.0 18.8 14.4 66 3.9 SSE 19 28 10 15 1020.4 1020.3 0.0
05/09:00pm 21.1 19.9 15.0 68 3.6 SSE 15 24 8 13 1020.2 1020.1 0.0
05/08:30pm 21.0 19.0 14.9 68 3.6 SSE 19 26 10 14 1019.9 1019.8 0.0
05/08:00pm 21.1 19.5 15.0 68 3.6 SSE 17 24 9 13 1019.7 1019.6 0.0
05/07:30pm 21.1 19.6 15.2 69 3.5 SSE 17 26 9 14 1019.5 1019.4 0.0
05/07:00pm 21.4 20.1 15.7 70 3.4 SSE 17 26 9 14 1019.3 1019.2 0.0
05/06:30pm 21.4 19.3 14.8 66 3.9 SSE 19 30 10 16 1019.1 1019.0 0.0
05/06:00pm 21.9 20.6 15.7 68 3.7 SSE 17 30 9 16 1019.1 1019.0 0.0
05/05:30pm 21.8 20.8 15.6 68 3.7 SSE 15 24 8 13 1019.2 1019.1 0.0
05/05:00pm 22.0 20.5 15.4 66 3.9 SSE 17 26 9 14 1019.3 1019.2 0.0
05/04:30pm 22.2 21.3 17.8 76 2.7 S 19 24 10 13 1019.4 1019.3 0.0
05/04:00pm 20.6 18.3 17.6 83 1.8 S 26 35 14 19 1019.5 1019.4 0.0
05/03:30pm 21.8 20.2 18.4 81 2.1 S 24 32 13 17 1019.6 1019.5 0.0
05/03:00pm 21.6 20.3 17.2 76 2.7 SSW 20 30 11 16 1019.7 1019.6 0.0
05/02:30pm 21.4 19.8 17.4 78 2.5 SSW 22 33 12 18 1019.8 1019.7 0.0
05/02:00pm 21.8 19.4 17.4 76 2.7 S 26 37 14 20 1019.9 1019.8 0.0
05/01:30pm 23.0 20.7 15.8 64 4.3 SSE 22 30 12 16 1019.8 1019.7 0.0
05/01:00pm 23.0 21.2 17.0 69 3.7 SSE 22 35 12 19 1019.9 1019.8 0.0
05/12:30pm 21.9 19.6 16.6 72 3.2 SSW 24 35 13 19 1020.2 1020.1 0.0
05/12:00pm 20.3 17.8 16.1 77 2.5 SSW 24 33 13 18 1020.2 1020.1 0.0
05/11:30am 20.1 18.0 16.3 79 2.3 SSW 22 37 12 20 1020.2 1020.1 0.0
05/11:00am 19.4 16.4 15.9 80 2.1 SSW 26 37 14 20 1020.3 1020.2 0.0
05/10:41am 20.2 16.0 15.8 76 2.6 S 32 52 17 28 1020.2 1020.1 0.0
05/10:30am 20.2 18.0 16.0 77 2.5 SSW 22 35 12 19 1020.1 1020.0 0.0
05/10:00am 20.5 17.5 16.9 80 2.2 S 28 43 15 23 1020.0 1019.9 0.0
05/09:30am 19.2 17.7 16.8 86 1.5 SSW 20 39 11 21 1019.8 1019.7 0.0
05/09:00am 17.9 16.2 14.6 81 1.9 SSW 17 28 9 15 1019.8 1019.7 0.2
05/08:30am 17.3 15.9 14.6 84 1.6 SSW 15 24 8 13 1019.7 1019.6 0.2
05/08:00am 17.1 15.2 14.2 83 1.7 SSW 17 26 9 14 1019.3 1019.2 0.2
05/07:30am 17.3 15.1 13.4 78 2.2 SW 17 28 9 15 1018.8 1018.7 0.2
05/07:00am 17.5 15.0 13.6 78 2.2 SW 19 28 10 15 1018.5 1018.4 0.2
05/06:30am 17.3 14.7 13.2 77 2.3 SW 19 30 10 16 1018.1 1018.0 0.2
05/06:00am 17.3 14.7 13.2 77 2.3 SW 19 28 10 15 1017.6 1017.5 0.2
05/05:30am 17.2 14.6 13.3 78 2.2 SW 19 28 10 15 1017.2 1017.1 0.2
05/05:00am 17.1 14.5 13.2 78 2.2 SW 19 32 10 17 1017.2 1017.1 0.2
05/04:30am 17.8 15.2 13.1 74 2.6 SW 19 33 10 18 1017.0 1016.9 0.2
05/04:00am 17.9 15.1 13.2 74 2.6 SW 20 30 11 16 1017.0 1016.9 0.2
05/03:30am 18.0 15.3 13.5 75 2.6 SW 20 41 11 22 1016.9 1016.8 0.2
05/03:00am 17.8 15.1 13.5 76 2.4 SSW 20 32 11 17 1017.1 1017.0 0.2
05/02:30am 17.2 15.1 13.7 80 2.0 SW 17 33 9 18 1017.2 1017.1 0.2
05/02:00am 16.7 15.5 14.0 84 1.5 SW 13 28 7 15 1017.4 1017.3 0.2
05/01:30am 17.5 15.1 13.8 79 2.1 SW 19 33 10 18 1017.6 1017.5 0.0
05/01:00am 17.3 15.0 14.0 81 1.9 SW 19 30 10 16 1017.7 1017.6 0.0
05/12:30am 17.3 14.8 14.2 82 1.8 SW 20 32 11 17 1017.9 1017.8 0.0
05/12:00am 17.8 15.6 14.9 83 1.7 SSW 20 32 11 17 1018.0 1017.9 0.0
 
Date/Time
EDT
Tmp

°C
App
Tmp
°C
Dew
Point
°C
Rel
Hum
%
Delta-T

°C
Wind Press
QNH
hPa
Press
MSL
hPa
Rain
since
9 am
mm
Dir
 
Spd
km/h
Gust
km/h
Spd
kts
Gust
kts
04/11:30pm 19.5 12.9 15.4 77 2.4 S 44 54 24 29 1017.8 1017.7 0.0
04/11:00pm 19.7 13.8 15.8 78 2.3 S 41 50 22 27 1017.8 1017.7 0.0
04/10:32pm 19.9 13.8 15.3 75 2.7 S 41 61 22 33 1017.7 1017.6 0.0
04/10:30pm 20.3 14.4 14.7 70 3.3 S 39 54 21 29 1017.7 1017.6 0.0
04/10:00pm 20.5 13.2 14.6 69 3.4 S 46 57 25 31 1017.8 1017.7 0.0
04/09:46pm 20.5 15.8 14.8 70 3.3 S 33 54 18 29 1017.6 1017.5 0.0
04/09:30pm 20.6 13.4 14.7 69 3.5 S 46 56 25 30 1017.6 1017.5 0.0
04/09:00pm 20.6 13.1 13.8 65 3.9 S 46 57 25 31 1017.3 1017.2 0.0
04/08:30pm 20.8 13.6 14.7 68 3.6 S 46 59 25 32 1017.1 1017.0 0.0
04/08:00pm 21.0 15.1 14.6 67 3.7 S 39 52 21 28 1017.0 1016.9 0.0
04/07:30pm 20.9 15.0 14.8 68 3.6 S 39 54 21 29 1016.7 1016.6 0.0
04/07:00pm 21.0 15.5 14.6 67 3.7 S 37 52 20 28 1016.2 1016.1 0.0
04/06:34pm 21.0 14.8 13.9 64 4.1 S 39 57 21 31 1015.8 1015.7 0.0
04/06:30pm 21.1 14.7 14.3 65 4.0 S 41 56 22 30 1015.8 1015.7 0.0
04/06:00pm 21.3 15.0 14.5 65 4.0 S 41 56 22 30 1015.5 1015.4 0.0
04/05:30pm 21.9 17.1 15.5 67 3.8 S 35 56 19 30 1015.4 1015.3 0.0
04/05:24pm 21.9 16.9 15.0 65 4.1 S 35 56 19 30 1015.4 1015.3 0.0
04/05:00pm 22.3 17.0 15.2 64 4.2 S 37 52 20 28 1015.3 1015.2 0.0
04/04:50pm 21.9 16.1 15.0 65 4.1 S 39 57 21 31 1015.3 1015.2 0.0
04/04:30pm 21.8 15.4 14.2 62 4.4 S 41 57 22 31 1015.1 1015.0 0.0
04/04:00pm 22.1 14.4 14.5 62 4.5 S 48 63 26 34 1015.1 1015.0 0.0
04/03:30pm 21.8 15.2 15.4 67 3.8 S 44 56 24 30 1015.3 1015.2 0.0
04/03:00pm 22.0 15.5 15.6 67 3.8 S 44 57 24 31 1015.2 1015.1 0.0
04/02:30pm 21.8 14.1 15.4 67 3.8 S 50 61 27 33 1015.2 1015.1 0.0
04/02:00pm 22.1 14.9 15.9 68 3.7 S 48 59 26 32 1015.2 1015.1 0.0
04/01:30pm 21.9 15.5 16.8 73 3.1 S 46 57 25 31 1015.3 1015.2 0.0
04/01:00pm 21.7 15.3 15.8 69 3.5 S 44 56 24 30 1015.3 1015.2 0.0
04/12:30pm 21.1 14.9 16.3 74 2.9 S 44 56 24 30 1015.4 1015.3 0.0
04/12:00pm 21.1 15.5 16.5 75 2.8 S 41 54 22 29 1015.3 1015.2 0.0
04/11:30am 21.0 14.6 16.8 77 2.6 S 46 61 25 33 1015.2 1015.1 0.0
04/11:00am 20.9 14.8 16.7 77 2.5 S 44 59 24 32 1014.9 1014.8 0.0
04/10:35am 20.6 14.1 16.6 78 2.4 S 46 67 25 36 1014.5 1014.4 0.0
04/10:30am 20.6 14.2 16.8 79 2.3 S 46 61 25 33 1014.5 1014.4 0.0
04/10:00am 20.2 13.9 17.0 82 1.9 S 46 59 25 32 1014.3 1014.2 0.0
04/09:32am 20.0 13.9 16.6 81 2.1 S 44 65 24 35 1014.1 1014.0 0.0
04/09:30am 19.9 13.7 16.5 81 2.0 S 44 63 24 34 1014.2 1014.1 0.0
04/09:00am 19.4 14.7 16.8 85 1.6 SSW 37 56 20 30 1014.1 1014.0 2.8
04/08:30am 19.1 13.9 16.5 85 1.6 S 39 61 21 33 1013.9 1013.8 2.6
04/08:00am 20.0 15.9 16.4 80 2.2 SSW 33 52 18 28 1013.5 1013.4 2.6
04/07:38am 19.4 16.3 16.6 84 1.7 SSW 28 46 15 25 1013.1 1013.0 2.6
04/07:30am 19.1 17.3 16.9 87 1.3 SSW 22 43 12 23 1013.2 1013.1 2.6
04/07:00am 17.9 16.2 15.7 87 1.3 SW 19 30 10 16 1013.0 1012.9 2.6
04/06:30am 17.4 15.9 16.3 93 0.7 SSW 19 26 10 14 1012.6 1012.5 2.6
04/06:00am 17.5 15.8 15.7 89 1.1 SW 19 26 10 14 1012.0 1011.9 2.4
04/05:30am 17.8 15.8 15.6 87 1.3 SW 20 30 11 16 1011.5 1011.4 2.4
04/05:00am 17.5 15.9 16.0 91 0.9 SW 19 30 10 16 1011.0 1010.9 2.4
04/04:30am 17.6 16.1 16.8 95 0.5 SSW 20 32 11 17 1010.7 1010.6 2.4
04/04:00am 17.5 16.3 17.0 97 0.3 SW 19 28 10 15 1010.9 1010.8 2.2
04/03:31am 18.8 15.4 15.7 82 1.8 SSW 28 46 15 25 1010.7 1010.6 2.0
04/03:30am 18.9 15.0 15.6 81 2.0 SSW 30 46 16 25 1010.7 1010.6 2.0
04/03:28am 19.1 14.7 15.6 80 2.1 SSW 33 52 18 28 1010.6 1010.5 2.0
04/03:00am 19.4 14.2 15.5 78 2.3 S 37 50 20 27 1010.4 1010.3 2.0
04/02:40am 19.0 13.7 15.3 79 2.2 S 37 57 20 31 1010.4 1010.3 2.0
04/02:30am 19.1 14.5 16.0 82 1.8 S 35 54 19 29 1010.3 1010.2 2.0
04/02:00am 19.5 14.4 18.7 95 0.5 S 43 54 23 29 1010.5 1010.4 2.0
04/01:30am 19.3 14.9 19.3 100 0.0 S 41 50 22 27 1010.4 1010.3 1.8
04/01:00am 19.3 14.9 19.3 100 0.0 S 41 54 22 29 1010.3 1010.2 1.2
04/12:30am 19.7 14.4 19.5 99 0.1 S 46 56 25 30 1010.4 1010.3 0.6
04/12:04am 19.8 17.0 19.1 96 0.4 S 32 50 17 27 1010.5 1010.4 0.4
04/12:00am 20.1 17.5 19.4 96 0.4 S 32 46 17 25 1010.5 1010.4 0.4
 
Date/Time
EDT
Tmp

°C
App
Tmp
°C
Dew
Point
°C
Rel
Hum
%
Delta-T

°C
Wind Press
QNH
hPa
Press
MSL
hPa
Rain
since
9 am
mm
Dir
 
Spd
km/h
Gust
km/h
Spd
kts
Gust
kts
03/11:30pm 20.7 17.4 18.3 86 1.5 S 33 50 18 27 1010.5 1010.4 0.4
03/11:00pm 21.0 16.1 18.2 84 1.7 S 41 54 22 29 1010.2 1010.1 0.4
03/10:30pm 20.6 16.0 18.0 85 1.6 S 39 46 21 25 1010.3 1010.2 0.4
03/10:00pm 20.3 15.8 18.2 88 1.3 S 39 50 21 27 1010.0 1009.9 0.4
03/09:30pm 20.8 16.1 18.7 88 1.3 S 41 52 22 28 1009.6 1009.5 0.4
03/09:00pm 20.8 16.8 18.6 87 1.4 S 37 50 20 27 1008.9 1008.8 0.4
03/08:30pm 21.4 16.8 18.8 85 1.6 S 41 54 22 29 1008.4 1008.3 0.4
03/08:00pm 21.3 16.9 19.4 89 1.2 S 41 52 22 28 1008.0 1007.9 0.2
03/07:30pm 22.2 18.6 18.6 80 2.3 S 35 46 19 25 1007.3 1007.1 0.0
03/07:00pm 22.3 18.1 18.1 77 2.6 S 37 52 20 28 1006.7 1006.5 0.0

Latest Capital City Observations: Canberra | Sydney | Melbourne | Brisbane | Adelaide | Perth | Hobart | Darwin

Other Formats:

Comma delimited format used in spreadsheet applications
http://www.bom.gov.au/fwo/IDN60903/IDN60903.94938.axf

JavaScript Object Notation format (JSON) in row-major order
http://www.bom.gov.au/fwo/IDN60903/IDN60903.94938.json